sensor_id;sensor_type;location;lat;lon;timestamp;P1;durP1;ratioP1;P2;durP2;ratioP2
24743;SDS011;12844;52.110;5.548;2023-04-23T00:00:02;9.10;;;7.60;;
24743;SDS011;12844;52.110;5.548;2023-04-23T00:02:29;8.93;;;7.70;;
24743;SDS011;12844;52.110;5.548;2023-04-23T00:04:59;9.55;;;7.93;;
24743;SDS011;12844;52.110;5.548;2023-04-23T00:07:31;9.02;;;7.57;;
24743;SDS011;12844;52.110;5.548;2023-04-23T00:09:57;9.13;;;7.60;;
24743;SDS011;12844;52.110;5.548;2023-04-23T00:12:24;8.75;;;7.60;;
24743;SDS011;12844;52.110;5.548;2023-04-23T00:14:50;9.32;;;8.02;;
24743;SDS011;12844;52.110;5.548;2023-04-23T00:17:16;8.77;;;7.72;;
24743;SDS011;12844;52.110;5.548;2023-04-23T00:19:42;9.85;;;7.80;;
24743;SDS011;12844;52.110;5.548;2023-04-23T00:22:07;9.93;;;8.32;;
24743;SDS011;12844;52.110;5.548;2023-04-23T00:24:33;9.55;;;8.00;;
24743;SDS011;12844;52.110;5.548;2023-04-23T00:27:00;8.80;;;7.60;;
24743;SDS011;12844;52.110;5.548;2023-04-23T00:29:26;9.57;;;7.85;;
24743;SDS011;12844;52.110;5.548;2023-04-23T00:31:51;9.95;;;8.32;;
24743;SDS011;12844;52.110;5.548;2023-04-23T00:34:17;9.30;;;8.20;;
24743;SDS011;12844;52.110;5.548;2023-04-23T00:36:43;9.57;;;8.35;;
24743;SDS011;12844;52.110;5.548;2023-04-23T00:39:08;9.25;;;7.85;;
24743;SDS011;12844;52.110;5.548;2023-04-23T00:41:35;9.40;;;7.82;;
24743;SDS011;12844;52.110;5.548;2023-04-23T00:44:01;10.77;;;8.50;;
24743;SDS011;12844;52.110;5.548;2023-04-23T00:46:27;10.35;;;8.35;;
24743;SDS011;12844;52.110;5.548;2023-04-23T00:48:53;9.43;;;8.15;;
24743;SDS011;12844;52.110;5.548;2023-04-23T00:51:19;9.27;;;8.23;;
24743;SDS011;12844;52.110;5.548;2023-04-23T00:53:46;9.52;;;8.40;;
24743;SDS011;12844;52.110;5.548;2023-04-23T00:56:12;9.80;;;8.07;;
24743;SDS011;12844;52.110;5.548;2023-04-23T00:58:38;10.63;;;8.77;;
24743;SDS011;12844;52.110;5.548;2023-04-23T01:01:04;10.70;;;8.70;;
24743;SDS011;12844;52.110;5.548;2023-04-23T01:03:31;11.00;;;9.05;;
24743;SDS011;12844;52.110;5.548;2023-04-23T01:05:58;9.60;;;8.60;;
24743;SDS011;12844;52.110;5.548;2023-04-23T01:08:24;10.40;;;8.80;;
24743;SDS011;12844;52.110;5.548;2023-04-23T01:10:50;10.20;;;8.80;;
24743;SDS011;12844;52.110;5.548;2023-04-23T01:13:17;11.02;;;8.85;;
24743;SDS011;12844;52.110;5.548;2023-04-23T01:15:43;11.45;;;9.43;;
24743;SDS011;12844;52.110;5.548;2023-04-23T01:18:09;9.93;;;8.48;;
24743;SDS011;12844;52.110;5.548;2023-04-23T01:20:36;9.95;;;8.70;;
24743;SDS011;12844;52.110;5.548;2023-04-23T01:23:03;10.20;;;8.55;;
24743;SDS011;12844;52.110;5.548;2023-04-23T01:25:29;12.20;;;9.30;;
24743;SDS011;12844;52.110;5.548;2023-04-23T01:27:54;10.20;;;8.63;;
24743;SDS011;12844;52.110;5.548;2023-04-23T01:30:21;9.98;;;8.40;;
24743;SDS011;12844;52.110;5.548;2023-04-23T01:32:49;11.27;;;9.23;;
24743;SDS011;12844;52.110;5.548;2023-04-23T01:35:14;10.63;;;9.02;;
24743;SDS011;12844;52.110;5.548;2023-04-23T01:37:40;10.60;;;8.80;;
24743;SDS011;12844;52.110;5.548;2023-04-23T01:40:07;11.00;;;8.98;;
24743;SDS011;12844;52.110;5.548;2023-04-23T01:42:33;10.50;;;8.88;;
24743;SDS011;12844;52.110;5.548;2023-04-23T01:44:59;10.18;;;9.07;;
24743;SDS011;12844;52.110;5.548;2023-04-23T01:47:26;9.93;;;8.93;;
24743;SDS011;12844;52.110;5.548;2023-04-23T01:49:52;10.60;;;9.07;;
24743;SDS011;12844;52.110;5.548;2023-04-23T01:52:17;10.88;;;9.38;;
24743;SDS011;12844;52.110;5.548;2023-04-23T01:54:43;9.93;;;8.93;;
24743;SDS011;12844;52.110;5.548;2023-04-23T01:57:09;11.02;;;9.57;;
24743;SDS011;12844;52.110;5.548;2023-04-23T01:59:35;13.10;;;10.27;;
24743;SDS011;12844;52.110;5.548;2023-04-23T02:02:01;10.27;;;8.93;;
24743;SDS011;12844;52.110;5.548;2023-04-23T03:14:22;11.32;;;9.60;;
24743;SDS011;12844;52.110;5.548;2023-04-23T03:16:47;11.40;;;10.07;;
24743;SDS011;12844;52.110;5.548;2023-04-23T03:19:13;11.40;;;9.77;;
24743;SDS011;12844;52.110;5.548;2023-04-23T03:21:39;12.35;;;9.40;;
24743;SDS011;12844;52.110;5.548;2023-04-23T03:24:04;11.45;;;9.50;;
24743;SDS011;12844;52.110;5.548;2023-04-23T03:26:30;12.32;;;10.00;;
24743;SDS011;12844;52.110;5.548;2023-04-23T03:28:56;11.65;;;9.63;;
24743;SDS011;12844;52.110;5.548;2023-04-23T03:31:21;11.68;;;9.80;;
24743;SDS011;12844;52.110;5.548;2023-04-23T03:33:47;11.73;;;9.65;;
24743;SDS011;12844;52.110;5.548;2023-04-23T03:36:12;12.32;;;10.30;;
24743;SDS011;12844;52.110;5.548;2023-04-23T03:38:39;12.70;;;9.75;;
24743;SDS011;12844;52.110;5.548;2023-04-23T03:41:05;11.18;;;9.82;;
24743;SDS011;12844;52.110;5.548;2023-04-23T03:43:30;10.60;;;9.18;;
24743;SDS011;12844;52.110;5.548;2023-04-23T03:45:56;11.82;;;10.10;;
24743;SDS011;12844;52.110;5.548;2023-04-23T03:48:21;12.23;;;10.20;;
24743;SDS011;12844;52.110;5.548;2023-04-23T03:50:47;11.43;;;9.35;;
24743;SDS011;12844;52.110;5.548;2023-04-23T03:53:12;10.40;;;9.27;;
24743;SDS011;12844;52.110;5.548;2023-04-23T03:55:38;12.23;;;9.57;;
24743;SDS011;12844;52.110;5.548;2023-04-23T03:58:03;11.77;;;9.18;;
24743;SDS011;12844;52.110;5.548;2023-04-23T04:00:29;11.38;;;9.30;;
24743;SDS011;12844;52.110;5.548;2023-04-23T04:02:54;11.00;;;9.55;;
24743;SDS011;12844;52.110;5.548;2023-04-23T04:05:20;11.77;;;10.20;;
24743;SDS011;12844;52.110;5.548;2023-04-23T04:07:46;12.07;;;9.80;;
24743;SDS011;12844;52.110;5.548;2023-04-23T04:10:12;12.05;;;9.98;;
24743;SDS011;12844;52.110;5.548;2023-04-23T04:12:38;11.70;;;9.90;;
24743;SDS011;12844;52.110;5.548;2023-04-23T04:15:05;12.43;;;10.10;;
24743;SDS011;12844;52.110;5.548;2023-04-23T04:17:30;11.25;;;9.35;;
24743;SDS011;12844;52.110;5.548;2023-04-23T04:19:56;10.73;;;9.63;;
24743;SDS011;12844;52.110;5.548;2023-04-23T04:22:21;11.38;;;9.48;;
24743;SDS011;12844;52.110;5.548;2023-04-23T04:24:48;11.05;;;9.60;;
24743;SDS011;12844;52.110;5.548;2023-04-23T04:27:15;11.38;;;9.45;;
24743;SDS011;12844;52.110;5.548;2023-04-23T04:29:42;11.20;;;9.50;;
24743;SDS011;12844;52.110;5.548;2023-04-23T04:32:07;10.10;;;8.98;;
24743;SDS011;12844;52.110;5.548;2023-04-23T04:34:33;9.82;;;8.70;;
24743;SDS011;12844;52.110;5.548;2023-04-23T04:37:02;11.75;;;9.38;;
24743;SDS011;12844;52.110;5.548;2023-04-23T04:39:28;11.05;;;9.07;;
24743;SDS011;12844;52.110;5.548;2023-04-23T04:41:53;10.10;;;8.82;;
24743;SDS011;12844;52.110;5.548;2023-04-23T04:44:19;10.65;;;9.15;;
24743;SDS011;12844;52.110;5.548;2023-04-23T04:46:45;11.07;;;9.07;;
24743;SDS011;12844;52.110;5.548;2023-04-23T04:49:11;11.60;;;9.43;;
24743;SDS011;12844;52.110;5.548;2023-04-23T04:51:37;10.32;;;8.43;;
24743;SDS011;12844;52.110;5.548;2023-04-23T04:54:04;10.82;;;8.77;;
24743;SDS011;12844;52.110;5.548;2023-04-23T04:56:31;10.10;;;8.52;;
24743;SDS011;12844;52.110;5.548;2023-04-23T04:59:00;10.38;;;9.13;;
24743;SDS011;12844;52.110;5.548;2023-04-23T05:01:26;10.65;;;9.02;;
24743;SDS011;12844;52.110;5.548;2023-04-23T05:03:53;10.88;;;9.27;;
24743;SDS011;12844;52.110;5.548;2023-04-23T05:06:19;10.20;;;8.38;;
24743;SDS011;12844;52.110;5.548;2023-04-23T05:08:45;10.45;;;9.35;;
24743;SDS011;12844;52.110;5.548;2023-04-23T05:11:14;10.13;;;8.82;;
24743;SDS011;12844;52.110;5.548;2023-04-23T05:13:44;9.80;;;8.48;;
24743;SDS011;12844;52.110;5.548;2023-04-23T05:16:09;9.77;;;8.43;;
24743;SDS011;12844;52.110;5.548;2023-04-23T05:18:36;9.63;;;8.27;;
24743;SDS011;12844;52.110;5.548;2023-04-23T05:21:02;10.45;;;8.43;;
24743;SDS011;12844;52.110;5.548;2023-04-23T05:23:27;11.00;;;9.23;;
24743;SDS011;12844;52.110;5.548;2023-04-23T05:25:53;10.18;;;8.52;;
24743;SDS011;12844;52.110;5.548;2023-04-23T05:28:20;9.93;;;8.45;;
24743;SDS011;12844;52.110;5.548;2023-04-23T05:30:46;10.32;;;8.85;;
24743;SDS011;12844;52.110;5.548;2023-04-23T05:33:11;9.88;;;8.63;;
24743;SDS011;12844;52.110;5.548;2023-04-23T05:35:37;9.57;;;8.23;;
24743;SDS011;12844;52.110;5.548;2023-04-23T05:38:03;9.57;;;8.55;;
24743;SDS011;12844;52.110;5.548;2023-04-23T05:40:30;10.27;;;8.43;;
24743;SDS011;12844;52.110;5.548;2023-04-23T05:42:57;10.52;;;8.88;;
24743;SDS011;12844;52.110;5.548;2023-04-23T05:45:22;10.15;;;8.23;;
24743;SDS011;12844;52.110;5.548;2023-04-23T05:47:48;10.15;;;8.57;;
24743;SDS011;12844;52.110;5.548;2023-04-23T05:50:13;10.20;;;8.57;;
24743;SDS011;12844;52.110;5.548;2023-04-23T05:52:39;9.90;;;8.18;;
24743;SDS011;12844;52.110;5.548;2023-04-23T05:55:05;9.65;;;8.32;;
24743;SDS011;12844;52.110;5.548;2023-04-23T05:57:33;9.80;;;8.55;;
24743;SDS011;12844;52.110;5.548;2023-04-23T06:00:00;9.68;;;8.27;;
24743;SDS011;12844;52.110;5.548;2023-04-23T06:02:25;9.40;;;8.32;;
24743;SDS011;12844;52.110;5.548;2023-04-23T06:04:52;10.10;;;8.80;;
24743;SDS011;12844;52.110;5.548;2023-04-23T06:07:18;9.63;;;8.43;;
24743;SDS011;12844;52.110;5.548;2023-04-23T06:09:43;10.13;;;8.25;;
24743;SDS011;12844;52.110;5.548;2023-04-23T06:12:09;9.18;;;8.23;;
24743;SDS011;12844;52.110;5.548;2023-04-23T06:14:35;9.80;;;8.73;;
24743;SDS011;12844;52.110;5.548;2023-04-23T06:17:00;9.25;;;8.25;;
24743;SDS011;12844;52.110;5.548;2023-04-23T06:19:26;9.35;;;8.40;;
24743;SDS011;12844;52.110;5.548;2023-04-23T06:21:52;9.70;;;8.45;;
24743;SDS011;12844;52.110;5.548;2023-04-23T06:24:18;9.55;;;8.55;;
24743;SDS011;12844;52.110;5.548;2023-04-23T06:26:43;10.02;;;8.52;;
24743;SDS011;12844;52.110;5.548;2023-04-23T06:29:09;9.55;;;8.13;;
24743;SDS011;12844;52.110;5.548;2023-04-23T06:31:34;10.18;;;7.97;;
24743;SDS011;12844;52.110;5.548;2023-04-23T06:34:00;8.85;;;7.93;;
24743;SDS011;12844;52.110;5.548;2023-04-23T06:36:26;9.35;;;8.43;;
24743;SDS011;12844;52.110;5.548;2023-04-23T06:38:51;9.77;;;8.60;;
24743;SDS011;12844;52.110;5.548;2023-04-23T06:41:17;8.98;;;8.00;;
24743;SDS011;12844;52.110;5.548;2023-04-23T06:43:42;9.30;;;7.75;;
24743;SDS011;12844;52.110;5.548;2023-04-23T06:46:09;9.73;;;8.30;;
24743;SDS011;12844;52.110;5.548;2023-04-23T06:48:35;9.20;;;8.20;;
24743;SDS011;12844;52.110;5.548;2023-04-23T06:51:01;10.48;;;8.55;;
24743;SDS011;12844;52.110;5.548;2023-04-23T06:53:27;9.20;;;7.95;;
24743;SDS011;12844;52.110;5.548;2023-04-23T06:55:52;8.98;;;8.02;;
24743;SDS011;12844;52.110;5.548;2023-04-23T06:58:18;8.80;;;7.90;;
24743;SDS011;12844;52.110;5.548;2023-04-23T07:00:43;8.35;;;7.40;;
24743;SDS011;12844;52.110;5.548;2023-04-23T07:03:10;8.52;;;7.30;;
24743;SDS011;12844;52.110;5.548;2023-04-23T07:05:35;8.55;;;7.40;;
24743;SDS011;12844;52.110;5.548;2023-04-23T07:08:01;9.00;;;7.70;;
24743;SDS011;12844;52.110;5.548;2023-04-23T07:10:26;8.48;;;7.40;;
24743;SDS011;12844;52.110;5.548;2023-04-23T07:12:52;8.88;;;7.57;;
24743;SDS011;12844;52.110;5.548;2023-04-23T07:15:17;7.60;;;6.75;;
24743;SDS011;12844;52.110;5.548;2023-04-23T07:17:43;7.65;;;6.90;;
24743;SDS011;12844;52.110;5.548;2023-04-23T07:20:08;8.32;;;7.28;;
24743;SDS011;12844;52.110;5.548;2023-04-23T07:22:34;8.32;;;7.22;;
24743;SDS011;12844;52.110;5.548;2023-04-23T07:25:00;8.13;;;7.25;;
24743;SDS011;12844;52.110;5.548;2023-04-23T07:27:26;8.57;;;7.40;;
24743;SDS011;12844;52.110;5.548;2023-04-23T07:29:51;7.88;;;7.07;;
24743;SDS011;12844;52.110;5.548;2023-04-23T07:32:17;8.23;;;7.38;;
24743;SDS011;12844;52.110;5.548;2023-04-23T07:34:43;7.30;;;6.60;;
24743;SDS011;12844;52.110;5.548;2023-04-23T07:37:08;8.43;;;6.88;;
24743;SDS011;12844;52.110;5.548;2023-04-23T07:39:34;7.60;;;6.80;;
24743;SDS011;12844;52.110;5.548;2023-04-23T07:41:59;7.13;;;6.38;;
24743;SDS011;12844;52.110;5.548;2023-04-23T07:44:26;7.82;;;6.65;;
24743;SDS011;12844;52.110;5.548;2023-04-23T07:46:51;7.68;;;6.80;;
24743;SDS011;12844;52.110;5.548;2023-04-23T07:49:17;7.32;;;6.40;;
24743;SDS011;12844;52.110;5.548;2023-04-23T07:51:42;6.90;;;6.18;;
24743;SDS011;12844;52.110;5.548;2023-04-23T07:54:08;7.10;;;6.40;;
24743;SDS011;12844;52.110;5.548;2023-04-23T07:56:34;7.53;;;6.22;;
24743;SDS011;12844;52.110;5.548;2023-04-23T07:59:00;7.25;;;6.22;;
24743;SDS011;12844;52.110;5.548;2023-04-23T08:01:26;7.53;;;6.70;;
24743;SDS011;12844;52.110;5.548;2023-04-23T08:03:52;7.20;;;6.47;;
24743;SDS011;12844;52.110;5.548;2023-04-23T08:06:20;6.60;;;5.90;;
24743;SDS011;12844;52.110;5.548;2023-04-23T08:08:46;7.15;;;6.35;;
24743;SDS011;12844;52.110;5.548;2023-04-23T08:11:11;6.90;;;6.07;;
24743;SDS011;12844;52.110;5.548;2023-04-23T08:13:37;6.75;;;5.85;;
24743;SDS011;12844;52.110;5.548;2023-04-23T08:16:02;6.85;;;6.15;;
24743;SDS011;12844;52.110;5.548;2023-04-23T08:18:28;6.78;;;5.78;;
24743;SDS011;12844;52.110;5.548;2023-04-23T08:20:54;6.45;;;5.45;;
24743;SDS011;12844;52.110;5.548;2023-04-23T08:23:20;6.72;;;6.03;;
24743;SDS011;12844;52.110;5.548;2023-04-23T08:25:46;6.50;;;5.78;;
24743;SDS011;12844;52.110;5.548;2023-04-23T08:28:11;5.78;;;5.18;;
24743;SDS011;12844;52.110;5.548;2023-04-23T08:30:37;6.03;;;5.35;;
24743;SDS011;12844;52.110;5.548;2023-04-23T08:33:03;6.03;;;5.43;;
24743;SDS011;12844;52.110;5.548;2023-04-23T08:35:28;5.60;;;4.95;;
24743;SDS011;12844;52.110;5.548;2023-04-23T08:37:54;6.18;;;5.57;;
24743;SDS011;12844;52.110;5.548;2023-04-23T08:40:20;6.05;;;5.45;;
24743;SDS011;12844;52.110;5.548;2023-04-23T08:42:49;5.25;;;4.75;;
24743;SDS011;12844;52.110;5.548;2023-04-23T08:45:21;5.63;;;5.00;;
24743;SDS011;12844;52.110;5.548;2023-04-23T08:47:47;5.55;;;4.85;;
24743;SDS011;12844;52.110;5.548;2023-04-23T08:50:13;5.82;;;4.82;;
24743;SDS011;12844;52.110;5.548;2023-04-23T08:52:53;5.05;;;4.55;;
24743;SDS011;12844;52.110;5.548;2023-04-23T08:55:21;5.47;;;4.90;;
24743;SDS011;12844;52.110;5.548;2023-04-23T08:57:48;5.00;;;4.50;;
24743;SDS011;12844;52.110;5.548;2023-04-23T09:00:15;5.43;;;4.90;;
24743;SDS011;12844;52.110;5.548;2023-04-23T09:02:43;5.70;;;4.88;;
24743;SDS011;12844;52.110;5.548;2023-04-23T09:05:09;4.60;;;4.10;;
24743;SDS011;12844;52.110;5.548;2023-04-23T09:07:36;5.57;;;4.60;;
24743;SDS011;12844;52.110;5.548;2023-04-23T09:10:03;5.47;;;4.55;;
24743;SDS011;12844;52.110;5.548;2023-04-23T09:12:34;4.88;;;4.10;;
24743;SDS011;12844;52.110;5.548;2023-04-23T09:15:00;4.28;;;3.85;;
24743;SDS011;12844;52.110;5.548;2023-04-23T09:17:27;5.13;;;4.25;;
24743;SDS011;12844;52.110;5.548;2023-04-23T09:19:53;4.40;;;4.00;;
24743;SDS011;12844;52.110;5.548;2023-04-23T09:25:12;4.65;;;4.15;;
24743;SDS011;12844;52.110;5.548;2023-04-23T09:27:40;4.50;;;4.03;;
24743;SDS011;12844;52.110;5.548;2023-04-23T09:30:06;4.20;;;3.60;;
24743;SDS011;12844;52.110;5.548;2023-04-23T09:32:34;4.68;;;4.07;;
24743;SDS011;12844;52.110;5.548;2023-04-23T09:35:05;5.47;;;4.10;;
24743;SDS011;12844;52.110;5.548;2023-04-23T09:47:54;3.75;;;3.38;;
24743;SDS011;12844;52.110;5.548;2023-04-23T09:50:32;3.78;;;3.40;;
24743;SDS011;12844;52.110;5.548;2023-04-23T09:53:04;3.78;;;3.45;;
24743;SDS011;12844;52.110;5.548;2023-04-23T09:55:32;3.88;;;3.35;;
24743;SDS011;12844;52.110;5.548;2023-04-23T09:58:09;4.10;;;3.70;;
24743;SDS011;12844;52.110;5.548;2023-04-23T10:00:39;4.05;;;3.40;;
24743;SDS011;12844;52.110;5.548;2023-04-23T10:03:06;3.65;;;3.30;;
24743;SDS011;12844;52.110;5.548;2023-04-23T10:05:36;3.45;;;3.13;;
24743;SDS011;12844;52.110;5.548;2023-04-23T10:08:05;4.78;;;3.42;;
24743;SDS011;12844;52.110;5.548;2023-04-23T10:10:31;4.55;;;3.45;;
24743;SDS011;12844;52.110;5.548;2023-04-23T10:12:58;4.13;;;3.20;;
24743;SDS011;12844;52.110;5.548;2023-04-23T10:15:24;4.22;;;3.20;;
24743;SDS011;12844;52.110;5.548;2023-04-23T10:17:50;3.83;;;2.78;;
24743;SDS011;12844;52.110;5.548;2023-04-23T10:20:17;4.22;;;3.00;;
24743;SDS011;12844;52.110;5.548;2023-04-23T10:22:46;3.05;;;2.75;;
24743;SDS011;12844;52.110;5.548;2023-04-23T10:25:12;4.70;;;3.20;;
24743;SDS011;12844;52.110;5.548;2023-04-23T10:27:39;3.90;;;2.60;;
24743;SDS011;12844;52.110;5.548;2023-04-23T10:30:09;4.38;;;2.67;;
24743;SDS011;12844;52.110;5.548;2023-04-23T10:32:36;3.08;;;2.78;;
24743;SDS011;12844;52.110;5.548;2023-04-23T10:35:05;3.25;;;2.50;;
24743;SDS011;12844;52.110;5.548;2023-04-23T10:37:32;3.05;;;2.45;;
24743;SDS011;12844;52.110;5.548;2023-04-23T10:40:09;3.63;;;2.60;;
24743;SDS011;12844;52.110;5.548;2023-04-23T10:42:38;3.88;;;2.50;;
24743;SDS011;12844;52.110;5.548;2023-04-23T10:45:14;3.25;;;2.38;;
24743;SDS011;12844;52.110;5.548;2023-04-23T10:47:41;3.17;;;2.75;;
24743;SDS011;12844;52.110;5.548;2023-04-23T10:50:26;4.10;;;3.15;;
24743;SDS011;12844;52.110;5.548;2023-04-23T10:52:53;2.95;;;2.25;;
24743;SDS011;12844;52.110;5.548;2023-04-23T10:55:25;3.83;;;2.50;;
24743;SDS011;12844;52.110;5.548;2023-04-23T10:57:55;3.80;;;2.53;;
24743;SDS011;12844;52.110;5.548;2023-04-23T11:00:25;3.08;;;2.38;;
24743;SDS011;12844;52.110;5.548;2023-04-23T11:02:51;3.65;;;2.50;;
24743;SDS011;12844;52.110;5.548;2023-04-23T11:05:17;3.22;;;2.47;;
24743;SDS011;12844;52.110;5.548;2023-04-23T11:08:00;3.65;;;2.30;;
24743;SDS011;12844;52.110;5.548;2023-04-23T11:10:30;3.88;;;2.33;;
24743;SDS011;12844;52.110;5.548;2023-04-23T11:13:18;2.38;;;2.17;;
24743;SDS011;12844;52.110;5.548;2023-04-23T11:19:10;4.07;;;2.47;;
24743;SDS011;12844;52.110;5.548;2023-04-23T11:27:11;2.65;;;2.05;;
24743;SDS011;12844;52.110;5.548;2023-04-23T11:29:38;2.75;;;1.90;;
24743;SDS011;12844;52.110;5.548;2023-04-23T11:32:06;3.30;;;2.40;;
24743;SDS011;12844;52.110;5.548;2023-04-23T11:34:37;2.88;;;2.13;;
24743;SDS011;12844;52.110;5.548;2023-04-23T11:37:04;2.95;;;2.10;;
24743;SDS011;12844;52.110;5.548;2023-04-23T11:39:30;2.88;;;2.20;;
24743;SDS011;12844;52.110;5.548;2023-04-23T11:41:56;3.20;;;2.13;;
24743;SDS011;12844;52.110;5.548;2023-04-23T11:44:26;2.92;;;2.13;;
24743;SDS011;12844;52.110;5.548;2023-04-23T11:46:52;2.05;;;1.85;;
24743;SDS011;12844;52.110;5.548;2023-04-23T11:49:18;3.22;;;2.42;;
24743;SDS011;12844;52.110;5.548;2023-04-23T11:51:45;3.15;;;2.20;;
24743;SDS011;12844;52.110;5.548;2023-04-23T11:54:11;2.47;;;1.90;;
24743;SDS011;12844;52.110;5.548;2023-04-23T11:56:38;3.17;;;2.05;;
24743;SDS011;12844;52.110;5.548;2023-04-23T11:59:05;2.47;;;1.80;;
24743;SDS011;12844;52.110;5.548;2023-04-23T12:01:40;2.40;;;1.88;;
24743;SDS011;12844;52.110;5.548;2023-04-23T12:06:46;2.85;;;2.40;;
24743;SDS011;12844;52.110;5.548;2023-04-23T12:09:14;2.22;;;1.77;;
24743;SDS011;12844;52.110;5.548;2023-04-23T12:11:41;2.13;;;1.85;;
24743;SDS011;12844;52.110;5.548;2023-04-23T12:14:08;3.13;;;2.00;;
24743;SDS011;12844;52.110;5.548;2023-04-23T12:16:35;2.88;;;1.80;;
24743;SDS011;12844;52.110;5.548;2023-04-23T12:19:03;3.17;;;1.90;;
24743;SDS011;12844;52.110;5.548;2023-04-23T12:21:31;2.20;;;1.90;;
24743;SDS011;12844;52.110;5.548;2023-04-23T12:23:57;2.45;;;1.90;;
24743;SDS011;12844;52.110;5.548;2023-04-23T12:26:23;1.90;;;1.67;;
24743;SDS011;12844;52.110;5.548;2023-04-23T12:28:50;2.65;;;2.05;;
24743;SDS011;12844;52.110;5.548;2023-04-23T12:31:20;2.63;;;2.00;;
24743;SDS011;12844;52.110;5.548;2023-04-23T12:33:52;2.22;;;1.83;;
24743;SDS011;12844;52.110;5.548;2023-04-23T12:36:38;2.65;;;1.92;;
24743;SDS011;12844;52.110;5.548;2023-04-23T12:39:26;2.28;;;1.63;;
24743;SDS011;12844;52.110;5.548;2023-04-23T12:42:04;3.13;;;1.90;;
24743;SDS011;12844;52.110;5.548;2023-04-23T12:44:38;2.03;;;1.83;;
24743;SDS011;12844;52.110;5.548;2023-04-23T12:47:04;2.75;;;1.85;;
24743;SDS011;12844;52.110;5.548;2023-04-23T12:49:35;2.53;;;1.80;;
24743;SDS011;12844;52.110;5.548;2023-04-23T12:52:02;2.22;;;1.60;;
24743;SDS011;12844;52.110;5.548;2023-04-23T12:54:30;2.83;;;1.67;;
24743;SDS011;12844;52.110;5.548;2023-04-23T12:57:03;3.45;;;1.88;;
24743;SDS011;12844;52.110;5.548;2023-04-23T12:59:30;2.80;;;1.88;;
24743;SDS011;12844;52.110;5.548;2023-04-23T13:01:56;2.92;;;1.67;;
24743;SDS011;12844;52.110;5.548;2023-04-23T13:04:25;2.85;;;1.80;;
24743;SDS011;12844;52.110;5.548;2023-04-23T13:06:55;1.90;;;1.55;;
24743;SDS011;12844;52.110;5.548;2023-04-23T13:09:21;2.03;;;1.60;;
24743;SDS011;12844;52.110;5.548;2023-04-23T13:11:48;2.25;;;1.70;;
24743;SDS011;12844;52.110;5.548;2023-04-23T13:14:15;2.20;;;1.75;;
24743;SDS011;12844;52.110;5.548;2023-04-23T13:16:41;2.95;;;1.73;;
24743;SDS011;12844;52.110;5.548;2023-04-23T13:19:07;1.98;;;1.70;;
24743;SDS011;12844;52.110;5.548;2023-04-23T13:21:33;3.13;;;1.98;;
24743;SDS011;12844;52.110;5.548;2023-04-23T13:23:58;2.20;;;1.60;;
24743;SDS011;12844;52.110;5.548;2023-04-23T13:26:24;1.60;;;1.50;;
24743;SDS011;12844;52.110;5.548;2023-04-23T13:28:50;2.38;;;2.00;;
24743;SDS011;12844;52.110;5.548;2023-04-23T13:31:16;2.83;;;1.70;;
24743;SDS011;12844;52.110;5.548;2023-04-23T13:33:41;2.55;;;1.58;;
24743;SDS011;12844;52.110;5.548;2023-04-23T13:36:07;2.30;;;1.65;;
24743;SDS011;12844;52.110;5.548;2023-04-23T13:38:33;2.78;;;1.85;;
24743;SDS011;12844;52.110;5.548;2023-04-23T13:40:58;2.05;;;1.50;;
24743;SDS011;12844;52.110;5.548;2023-04-23T13:43:24;2.40;;;1.48;;
24743;SDS011;12844;52.110;5.548;2023-04-23T13:45:51;2.78;;;1.80;;
24743;SDS011;12844;52.110;5.548;2023-04-23T13:48:17;2.28;;;1.55;;
24743;SDS011;12844;52.110;5.548;2023-04-23T13:50:43;1.88;;;1.55;;
24743;SDS011;12844;52.110;5.548;2023-04-23T13:53:09;2.47;;;1.60;;
24743;SDS011;12844;52.110;5.548;2023-04-23T13:55:36;2.08;;;1.50;;
24743;SDS011;12844;52.110;5.548;2023-04-23T13:58:02;2.00;;;1.70;;
24743;SDS011;12844;52.110;5.548;2023-04-23T14:00:28;2.53;;;2.10;;
24743;SDS011;12844;52.110;5.548;2023-04-23T14:02:55;1.75;;;1.55;;
24743;SDS011;12844;52.110;5.548;2023-04-23T14:05:20;2.42;;;1.40;;
24743;SDS011;12844;52.110;5.548;2023-04-23T14:07:46;1.95;;;1.50;;
24743;SDS011;12844;52.110;5.548;2023-04-23T14:10:12;2.47;;;1.50;;
24743;SDS011;12844;52.110;5.548;2023-04-23T14:12:39;1.70;;;1.60;;
24743;SDS011;12844;52.110;5.548;2023-04-23T14:15:05;2.30;;;1.55;;
24743;SDS011;12844;52.110;5.548;2023-04-23T14:17:31;2.60;;;1.88;;
24743;SDS011;12844;52.110;5.548;2023-04-23T14:19:57;2.67;;;1.50;;
24743;SDS011;12844;52.110;5.548;2023-04-23T14:22:22;2.28;;;1.60;;
24743;SDS011;12844;52.110;5.548;2023-04-23T14:24:54;1.90;;;1.42;;
24743;SDS011;12844;52.110;5.548;2023-04-23T14:27:25;2.70;;;1.60;;
24743;SDS011;12844;52.110;5.548;2023-04-23T14:32:21;1.60;;;1.40;;
24743;SDS011;12844;52.110;5.548;2023-04-23T14:34:46;2.80;;;1.67;;
24743;SDS011;12844;52.110;5.548;2023-04-23T14:37:12;2.90;;;1.52;;
24743;SDS011;12844;52.110;5.548;2023-04-23T14:39:38;1.95;;;1.40;;
24743;SDS011;12844;52.110;5.548;2023-04-23T14:42:04;1.90;;;1.40;;
24743;SDS011;12844;52.110;5.548;2023-04-23T14:44:30;1.85;;;1.50;;
24743;SDS011;12844;52.110;5.548;2023-04-23T14:46:55;2.78;;;1.65;;
24743;SDS011;12844;52.110;5.548;2023-04-23T14:49:21;2.05;;;1.67;;
24743;SDS011;12844;52.110;5.548;2023-04-23T14:51:47;2.28;;;1.63;;
24743;SDS011;12844;52.110;5.548;2023-04-23T14:54:18;1.90;;;1.52;;
24743;SDS011;12844;52.110;5.548;2023-04-23T14:56:44;1.60;;;1.48;;
24743;SDS011;12844;52.110;5.548;2023-04-23T14:59:10;1.85;;;1.55;;
24743;SDS011;12844;52.110;5.548;2023-04-23T15:01:36;2.78;;;1.50;;
24743;SDS011;12844;52.110;5.548;2023-04-23T15:04:02;1.92;;;1.40;;
24743;SDS011;12844;52.110;5.548;2023-04-23T15:06:27;2.20;;;1.40;;
24743;SDS011;12844;52.110;5.548;2023-04-23T15:08:53;1.70;;;1.50;;
24743;SDS011;12844;52.110;5.548;2023-04-23T15:11:19;2.55;;;1.40;;
24743;SDS011;12844;52.110;5.548;2023-04-23T15:14:01;1.88;;;1.42;;
24743;SDS011;12844;52.110;5.548;2023-04-23T15:16:32;1.92;;;1.45;;
24743;SDS011;12844;52.110;5.548;2023-04-23T15:19:00;2.53;;;1.38;;
24743;SDS011;12844;52.110;5.548;2023-04-23T15:21:27;2.72;;;1.52;;
24743;SDS011;12844;52.110;5.548;2023-04-23T15:23:52;3.03;;;1.60;;
24743;SDS011;12844;52.110;5.548;2023-04-23T15:26:19;1.42;;;1.27;;
24743;SDS011;12844;52.110;5.548;2023-04-23T15:28:45;2.13;;;1.42;;
24743;SDS011;12844;52.110;5.548;2023-04-23T15:31:11;2.33;;;1.40;;
24743;SDS011;12844;52.110;5.548;2023-04-23T15:33:37;2.28;;;1.60;;
24743;SDS011;12844;52.110;5.548;2023-04-23T15:36:04;2.00;;;1.58;;
24743;SDS011;12844;52.110;5.548;2023-04-23T15:38:30;1.65;;;1.30;;
24743;SDS011;12844;52.110;5.548;2023-04-23T15:40:56;2.08;;;1.35;;
24743;SDS011;12844;52.110;5.548;2023-04-23T15:43:21;1.80;;;1.38;;
24743;SDS011;12844;52.110;5.548;2023-04-23T15:45:47;1.67;;;1.38;;
24743;SDS011;12844;52.110;5.548;2023-04-23T15:48:14;1.98;;;1.30;;
24743;SDS011;12844;52.110;5.548;2023-04-23T15:50:40;2.10;;;1.30;;
24743;SDS011;12844;52.110;5.548;2023-04-23T15:53:06;1.92;;;1.40;;
24743;SDS011;12844;52.110;5.548;2023-04-23T15:55:32;1.50;;;1.40;;
24743;SDS011;12844;52.110;5.548;2023-04-23T15:57:58;1.80;;;1.20;;
24743;SDS011;12844;52.110;5.548;2023-04-23T16:00:26;1.35;;;1.25;;
24743;SDS011;12844;52.110;5.548;2023-04-23T16:02:52;2.25;;;1.65;;
24743;SDS011;12844;52.110;5.548;2023-04-23T16:05:18;2.65;;;1.63;;
24743;SDS011;12844;52.110;5.548;2023-04-23T16:07:44;2.15;;;1.58;;
24743;SDS011;12844;52.110;5.548;2023-04-23T16:20:31;2.00;;;1.48;;
24743;SDS011;12844;52.110;5.548;2023-04-23T16:22:57;2.60;;;1.30;;
24743;SDS011;12844;52.110;5.548;2023-04-23T16:25:23;2.42;;;1.63;;
24743;SDS011;12844;52.110;5.548;2023-04-23T16:27:48;1.85;;;1.20;;